createdAt,value
2019-01-10T00:17:03.989Z,2.00
2019-01-10T00:19:36.351Z,2.00
2019-01-10T00:22:29.839Z,1.60
2019-01-10T00:25:21.852Z,1.33
2019-01-10T00:28:32.499Z,1.33
2019-01-10T00:31:18.562Z,2.00
2019-01-10T00:34:22.944Z,2.00
2019-01-10T00:40:19.388Z,2.00
2019-01-10T00:43:34.484Z,1.33
2019-01-10T00:46:25.532Z,0.00
2019-01-10T00:49:01.376Z,0.00
2019-01-10T00:54:14.375Z,2.00
2019-01-10T00:56:45.619Z,4.00
2019-01-10T00:59:35.759Z,1.33
2019-01-10T01:02:06.947Z,2.67
2019-01-10T01:04:39.076Z,2.00
2019-01-10T01:07:29.274Z,2.00
2019-01-10T01:10:38.504Z,3.33
2019-01-10T01:13:28.733Z,2.00
2019-01-10T01:16:00.792Z,1.60
2019-01-10T01:18:51.757Z,4.00
2019-01-10T01:21:22.908Z,0.00
2019-01-10T01:24:14.246Z,1.60
2019-01-10T01:27:06.315Z,2.00
2019-01-10T01:29:50.191Z,0.80
2019-01-10T01:32:22.283Z,2.00
2019-01-10T01:34:56.314Z,3.60
2019-01-10T01:37:53.504Z,2.80
2019-01-10T01:40:03.983Z,2.00
2019-01-10T01:42:55.309Z,2.00
2019-01-10T01:45:27.399Z,2.40
2019-01-10T01:48:00.323Z,2.00
2019-01-10T01:50:31.851Z,2.67
2019-01-10T01:53:06.605Z,2.00
2019-01-10T01:55:37.834Z,2.00
2019-01-10T01:58:09.748Z,2.40
2019-01-10T02:00:59.839Z,3.33
2019-01-10T02:03:51.617Z,2.00
2019-01-10T02:06:42.649Z,2.00
2019-01-10T02:09:14.935Z,2.00
2019-01-10T02:11:47.004Z,4.00
2019-01-10T02:17:48.889Z,2.67
2019-01-10T02:26:59.135Z,3.00
2019-01-10T02:30:02.377Z,3.00
2019-01-10T02:33:05.726Z,2.00
2019-01-10T02:35:46.758Z,2.00
2019-01-10T02:38:58.172Z,3.33
2019-01-10T02:41:51.198Z,2.00
2019-01-10T02:56:14.549Z,2.00
2019-01-10T03:02:43.433Z,1.00
2019-01-10T03:05:33.687Z,2.00
2019-01-10T03:08:25.104Z,2.00
2019-01-10T03:11:30.621Z,2.00
2019-01-10T03:17:38.237Z,2.00
2019-01-10T03:23:36.313Z,2.80
2019-01-10T03:29:33.685Z,1.40
2019-01-10T03:32:24.426Z,2.33
2019-01-10T03:35:35.161Z,3.00
2019-01-10T03:38:29.684Z,1.20
2019-01-10T03:53:22.957Z,3.00
2019-01-10T03:55:55.348Z,2.00
2019-01-10T04:02:08.301Z,2.00
2019-01-10T04:04:59.447Z,2.00
2019-01-10T04:07:50.510Z,4.40
2019-01-10T04:10:45.739Z,3.00
2019-01-10T04:13:16.955Z,2.00
2019-01-10T04:18:40.328Z,3.50
2019-01-10T04:21:16.887Z,2.67
2019-01-10T04:23:44.510Z,2.00
2019-01-10T04:29:25.798Z,2.00
2019-01-10T04:34:40.249Z,2.00
2019-01-10T04:37:11.457Z,3.33
2019-01-10T04:39:42.720Z,2.00
2019-01-10T04:42:32.582Z,2.00
2019-01-10T04:45:24.835Z,2.00
2019-01-10T04:47:56.880Z,4.00
2019-01-10T04:50:28.892Z,1.20
2019-01-10T04:53:19.077Z,4.00
2019-01-10T04:55:50.292Z,4.00
2019-01-10T04:58:42.796Z,2.67
2019-01-10T05:01:13.977Z,2.00
2019-01-10T05:03:45.226Z,4.00
2019-01-10T05:06:36.268Z,2.00
2019-01-10T05:09:12.547Z,1.00
2019-01-10T05:12:03.529Z,2.80
2019-01-10T05:14:54.508Z,3.50
2019-01-10T05:17:26.549Z,4.00
2019-01-10T05:19:57.782Z,2.00
2019-01-10T05:22:48.848Z,2.80
2019-01-10T05:25:22.273Z,2.00
2019-01-10T05:27:54.389Z,0.00
2019-01-10T05:30:45.395Z,2.00
2019-01-10T05:33:16.592Z,2.67
2019-01-10T05:35:47.766Z,3.33
2019-01-10T05:38:20.103Z,3.60
2019-01-10T05:41:10.490Z,4.00
2019-01-10T05:44:00.664Z,2.00
2019-01-10T05:46:31.877Z,2.67
2019-01-10T05:49:20.776Z,0.67
2019-01-10T05:51:35.862Z,2.00
2019-01-10T05:56:57.930Z,3.60
2019-01-10T05:59:29.147Z,4.00
2019-01-10T06:02:19.410Z,2.00
2019-01-10T06:04:51.721Z,3.20
2019-01-10T06:07:22.850Z,1.33
2019-01-10T06:09:54.098Z,2.00
2019-01-10T06:12:25.275Z,2.00
2019-01-10T06:15:16.285Z,2.00
2019-01-10T06:18:07.364Z,2.00
2019-01-10T06:20:39.397Z,1.60
2019-01-10T06:23:11.764Z,4.00
2019-01-10T06:26:01.937Z,2.00
2019-01-10T06:28:33.143Z,2.00
2019-01-10T06:31:23.221Z,2.67
2019-01-10T06:36:57.374Z,3.33
2019-01-10T06:42:39.460Z,2.00
2019-01-10T06:45:17.265Z,2.00
2019-01-10T06:47:52.409Z,2.00
2019-01-10T06:51:03.688Z,2.40
2019-01-10T06:56:17.505Z,2.00
2019-01-10T06:59:11.894Z,0.67
2019-01-10T07:02:02.953Z,1.60
2019-01-10T07:10:55.733Z,2.80
2019-01-10T07:13:45.920Z,2.00
2019-01-10T07:16:17.937Z,2.00
2019-01-10T07:18:49.972Z,2.00
2019-01-10T07:21:22.021Z,2.00
2019-01-10T07:23:56.769Z,2.00
2019-01-10T07:26:28.783Z,2.40
2019-01-10T07:29:22.133Z,3.20
2019-01-10T07:32:06.224Z,2.40
2019-01-10T07:34:46.536Z,2.00
2019-01-10T07:44:05.320Z,2.00
2019-01-10T07:46:48.934Z,2.00
2019-01-10T07:49:12.135Z,2.00
2019-01-10T07:52:02.380Z,2.00
2019-01-10T07:54:33.651Z,2.00
2019-01-10T07:57:06.120Z,2.00
2019-01-10T07:59:55.969Z,2.00
2019-01-10T08:02:46.250Z,2.00
2019-01-10T08:05:53.951Z,3.33
2019-01-10T08:08:45.074Z,4.00
2019-01-10T08:11:36.526Z,2.67
2019-01-10T08:14:46.809Z,2.00
2019-01-10T08:20:11.189Z,4.00
2019-01-10T08:22:54.632Z,2.00
2019-01-10T08:25:45.566Z,3.00
2019-01-10T08:28:16.817Z,3.33
2019-01-10T08:31:07.005Z,1.33
2019-01-10T08:33:38.260Z,2.00
2019-01-10T08:36:09.585Z,2.67
2019-01-10T08:39:00.611Z,4.00
2019-01-10T08:41:53.220Z,4.00
2019-01-10T08:44:44.059Z,3.33
2019-01-10T08:53:01.991Z,2.00
2019-01-10T08:55:53.741Z,2.00
2019-01-10T09:01:49.764Z,4.00
2019-01-10T09:04:21.022Z,2.00
2019-01-10T09:11:12.007Z,4.00
2019-01-10T09:14:14.791Z,2.50
2019-01-10T09:19:38.634Z,3.33
2019-01-10T09:22:28.525Z,2.00
2019-01-10T09:25:02.314Z,2.00
2019-01-10T09:27:33.647Z,2.00
2019-01-10T09:30:07.007Z,2.50
2019-01-10T09:35:41.709Z,2.00
2019-01-10T09:38:47.136Z,2.67
2019-01-10T09:41:37.344Z,4.00
2019-01-10T09:47:18.941Z,4.00
2019-01-10T09:49:51.091Z,3.50
2019-01-10T09:52:22.363Z,4.00
2019-01-10T09:55:14.098Z,3.33
2019-01-10T09:57:45.678Z,4.00
2019-01-10T10:00:43.329Z,0.00
2019-01-10T10:03:27.433Z,6.00
2019-01-10T10:06:07.863Z,2.00
2019-01-10T10:08:40.689Z,4.00
2019-01-10T10:11:12.960Z,4.00
2019-01-10T10:14:05.676Z,4.00
2019-01-10T10:16:37.776Z,4.00
2019-01-10T10:19:09.066Z,4.00
2019-01-10T10:21:59.147Z,3.33
2019-01-10T10:27:17.426Z,2.00
2019-01-10T10:30:07.308Z,4.00
2019-01-10T10:32:58.384Z,6.00
2019-01-10T10:36:07.921Z,3.33
2019-01-10T10:41:48.043Z,5.00
2019-01-10T10:44:20.918Z,4.67
2019-01-10T10:50:02.563Z,2.50
2019-01-10T10:55:45.461Z,4.00
2019-01-10T10:58:35.650Z,4.00
2019-01-10T11:01:06.758Z,3.33
2019-01-10T11:03:57.835Z,4.00
2019-01-10T11:06:48.825Z,5.00
2019-01-10T11:09:31.549Z,5.33
2019-01-10T11:12:03.769Z,5.20
2019-01-10T11:14:56.351Z,4.00
2019-01-10T11:17:49.679Z,4.00
2019-01-10T11:20:23.514Z,4.00
2019-01-10T11:23:13.620Z,6.67
2019-01-10T11:26:04.601Z,4.00
2019-01-10T11:28:55.556Z,4.50
2019-01-10T11:31:26.866Z,4.00
2019-01-10T11:33:58.815Z,5.50
2019-01-10T11:39:32.626Z,4.50
2019-01-10T11:42:04.221Z,4.00
2019-01-10T11:44:35.419Z,4.00
2019-01-10T11:47:05.921Z,4.67
2019-01-10T11:49:39.389Z,6.00
2019-01-10T11:52:30.494Z,4.00
2019-01-10T11:55:21.159Z,4.50
2019-01-10T11:57:53.440Z,4.50
2019-01-10T12:01:04.621Z,4.00
2019-01-10T12:03:56.327Z,6.67
2019-01-10T12:06:31.516Z,4.50
2019-01-10T12:09:02.856Z,4.00
2019-01-10T12:11:35.293Z,4.50
2019-01-10T12:14:05.660Z,4.67
2019-01-10T12:16:55.908Z,4.00
2019-01-10T12:22:46.653Z,4.00
2019-01-10T12:25:18.275Z,4.00
2019-01-10T12:28:01.944Z,4.00
2019-01-10T12:30:42.529Z,3.60
2019-01-10T12:33:34.298Z,5.33
2019-01-10T12:36:43.419Z,4.00
2019-01-10T12:39:34.867Z,4.67
2019-01-10T12:42:07.128Z,4.00
2019-01-10T12:44:41.341Z,5.33
2019-01-10T12:47:14.312Z,3.50
2019-01-10T12:49:47.245Z,4.00
2019-01-10T12:52:52.735Z,4.00
2019-01-10T12:55:13.955Z,2.00
2019-01-10T12:58:05.086Z,2.00
2019-01-10T13:00:39.861Z,4.00
2019-01-10T13:06:14.732Z,4.00
2019-01-10T13:09:25.035Z,4.00
2019-01-10T13:11:59.115Z,2.40
2019-01-10T13:14:53.420Z,5.00
2019-01-10T13:17:25.208Z,2.00
2019-01-10T13:20:36.119Z,4.80
2019-01-10T13:26:28.413Z,4.00
2019-01-10T13:29:19.423Z,2.50
2019-01-10T13:32:10.576Z,2.80
2019-01-10T13:34:41.828Z,4.00
2019-01-10T13:37:32.768Z,2.50
2019-01-10T13:40:05.467Z,4.00
2019-01-10T13:42:56.408Z,3.50
2019-01-10T13:45:27.714Z,4.00
2019-01-10T13:47:58.962Z,3.33
2019-01-10T13:50:32.444Z,4.00
2019-01-10T13:53:03.815Z,2.00
2019-01-10T13:55:36.040Z,2.00
2019-01-10T14:01:31.755Z,4.50
2019-01-10T14:04:24.114Z,4.00
2019-01-10T14:07:14.329Z,2.00
2019-01-10T14:10:23.228Z,2.00
2019-01-10T14:13:32.377Z,2.00
2019-01-10T14:16:42.859Z,4.00
2019-01-10T14:19:34.086Z,2.00
2019-01-10T14:22:26.192Z,2.67
2019-01-10T14:28:18.171Z,3.80
2019-01-10T14:31:36.574Z,2.00
2019-01-10T14:34:30.819Z,4.00
2019-01-10T14:37:22.683Z,3.33
2019-01-10T14:45:43.055Z,2.00
2019-01-10T14:48:15.320Z,5.20
2019-01-10T14:51:05.492Z,4.00
2019-01-10T14:53:39.732Z,4.00
2019-01-10T14:56:29.641Z,4.00
2019-01-10T14:59:32.688Z,3.20
2019-01-10T15:02:22.802Z,2.00
2019-01-10T15:07:57.570Z,4.00
2019-01-10T15:10:31.881Z,2.00
2019-01-10T15:13:43.782Z,4.00
2019-01-10T15:16:36.314Z,5.00
2019-01-10T15:19:26.715Z,4.00
2019-01-10T15:21:59.641Z,4.00
2019-01-10T15:24:31.618Z,2.50
2019-01-10T15:27:02.803Z,2.00
2019-01-10T15:29:34.090Z,4.00
2019-01-10T15:32:05.324Z,3.33
2019-01-10T15:38:06.721Z,2.00
2019-01-10T15:40:37.818Z,2.67
2019-01-10T15:43:10.304Z,3.20
2019-01-10T15:45:41.773Z,6.00
2019-01-10T15:48:14.888Z,4.00
2019-01-10T15:53:59.826Z,4.00
2019-01-10T15:56:50.684Z,4.00
2019-01-10T16:02:50.814Z,3.67
2019-01-10T16:05:41.050Z,2.67
2019-01-10T16:08:14.938Z,2.00
2019-01-10T16:10:46.093Z,5.00
2019-01-10T16:13:36.689Z,2.00
2019-01-10T16:16:08.713Z,3.60
2019-01-10T16:18:41.184Z,2.00
2019-01-10T16:21:12.699Z,4.00
2019-01-10T16:23:43.979Z,4.00
2019-01-10T16:26:15.253Z,4.67
2019-01-10T16:29:07.301Z,4.00
2019-01-10T16:34:52.300Z,4.00
2019-01-10T16:37:33.330Z,4.00
2019-01-10T16:40:05.803Z,4.00
2019-01-10T16:42:37.129Z,2.00
2019-01-10T16:45:15.807Z,2.00
2019-01-10T16:47:47.034Z,4.00
2019-01-10T16:50:18.229Z,4.67
2019-01-10T16:52:49.395Z,4.00
2019-01-10T16:55:40.599Z,6.00
2019-01-10T16:58:12.794Z,4.40
2019-01-10T17:00:48.130Z,4.00
2019-01-10T17:03:20.253Z,4.00
2019-01-10T17:09:17.627Z,2.67
2019-01-10T17:12:13.748Z,4.00
2019-01-10T17:14:45.821Z,4.00
2019-01-10T17:17:37.555Z,4.67
2019-01-10T17:20:01.043Z,4.00
2019-01-10T17:22:50.969Z,7.33
2019-01-10T17:25:23.461Z,5.00
2019-01-10T17:27:54.681Z,4.00
2019-01-10T17:30:28.412Z,7.00
2019-01-10T17:33:02.030Z,5.00
2019-01-10T17:35:34.731Z,5.25
2019-01-10T17:38:06.502Z,6.00
2019-01-10T17:40:36.755Z,4.00
2019-01-10T17:43:26.078Z,4.00
2019-01-10T17:45:57.305Z,8.00
2019-01-10T17:48:28.884Z,6.00
2019-01-10T17:51:18.184Z,6.67
2019-01-10T17:54:07.166Z,5.00
2019-01-10T17:56:57.617Z,6.00
2019-01-10T17:59:29.631Z,8.00
2019-01-10T18:02:21.416Z,6.67
2019-01-10T18:05:10.409Z,6.67
2019-01-10T18:08:00.530Z,6.00
2019-01-10T18:10:32.658Z,7.33
2019-01-10T18:13:06.630Z,8.67
2019-01-10T18:15:56.872Z,8.00
2019-01-10T18:18:28.052Z,8.00
2019-01-10T18:20:58.447Z,7.33
2019-01-10T18:23:29.946Z,6.67
2019-01-10T18:26:02.040Z,7.67
2019-01-10T18:31:35.344Z,6.00
2019-01-10T18:34:20.188Z,6.67
2019-01-10T18:37:09.524Z,9.67
2019-01-10T18:39:58.505Z,8.00
2019-01-10T18:42:29.160Z,6.00
2019-01-10T18:45:05.742Z,8.67
2019-01-10T18:47:37.220Z,7.33
2019-01-10T18:50:12.760Z,10.00
2019-01-10T18:53:02.960Z,11.33
2019-01-10T18:55:35.978Z,9.33
2019-01-10T19:00:57.177Z,8.67
2019-01-10T19:03:50.419Z,10.00
2019-01-10T19:06:39.403Z,10.00
2019-01-10T19:09:29.580Z,10.00
2019-01-10T19:12:00.007Z,12.67
2019-01-10T19:15:04.254Z,12.67
2019-01-10T19:26:46.886Z,11.33
2019-01-10T19:29:17.286Z,10.00
2019-01-10T19:32:08.058Z,10.00
2019-01-10T19:35:09.487Z,8.00
2019-01-10T19:37:48.186Z,10.67
2019-01-10T19:43:12.488Z,8.00
2019-01-10T19:45:44.904Z,6.00
2019-01-10T19:48:36.546Z,9.00
2019-01-10T19:51:26.993Z,8.00
2019-01-10T19:53:58.199Z,6.00
2019-01-10T19:56:47.780Z,8.67
2019-01-10T19:59:20.778Z,7.67
2019-01-10T20:02:12.140Z,7.33
2019-01-10T20:04:42.404Z,12.00
2019-01-10T20:07:35.059Z,8.67
2019-01-10T20:10:24.273Z,7.33
2019-01-10T20:19:02.518Z,9.33
2019-01-10T20:21:34.603Z,8.67
2019-01-10T20:24:05.786Z,6.67
2019-01-10T20:32:51.821Z,8.67
2019-01-10T20:35:10.026Z,6.00
2019-01-10T20:37:40.348Z,8.00
2019-01-10T20:40:49.469Z,8.00
2019-01-10T20:43:39.629Z,8.00
2019-01-10T20:46:29.776Z,8.67
2019-01-10T20:55:56.044Z,10.00
2019-01-10T20:58:45.385Z,15.67
2019-01-10T21:01:54.855Z,8.67
2019-01-10T21:10:21.983Z,12.00
2019-01-10T21:12:58.818Z,12.00
2019-01-10T21:15:32.874Z,10.67
2019-01-10T21:18:03.564Z,10.00
2019-01-10T21:20:34.882Z,10.00
2019-01-10T21:23:05.879Z,10.00
2019-01-10T21:28:44.019Z,9.33
2019-01-10T21:31:16.224Z,11.33
2019-01-10T21:33:46.545Z,9.33
2019-01-10T21:36:36.684Z,8.00
2019-01-10T21:39:07.986Z,10.00
2019-01-10T21:41:42.617Z,10.67
2019-01-10T21:44:24.666Z,8.00
2019-01-10T21:46:55.434Z,10.67
2019-01-10T21:49:25.706Z,11.33
2019-01-10T21:54:45.351Z,10.00
2019-01-10T21:57:15.833Z,10.67
2019-01-10T22:00:05.999Z,8.00
2019-01-10T22:08:13.334Z,9.33
2019-01-10T22:10:43.648Z,11.33
2019-01-10T22:16:22.232Z,10.00
2019-01-10T22:19:16.566Z,6.00
2019-01-10T22:21:46.603Z,8.00
2019-01-10T22:24:35.901Z,10.00
2019-01-10T22:27:06.207Z,6.67
2019-01-10T22:29:36.575Z,10.00
2019-01-10T22:32:07.666Z,10.00
2019-01-10T22:34:39.264Z,8.00
2019-01-10T22:37:30.347Z,10.00
2019-01-10T22:46:31.079Z,9.33
2019-01-10T22:49:21.322Z,10.00
2019-01-10T22:55:37.437Z,10.00
2019-01-10T23:10:34.947Z,8.00
2019-01-10T23:19:24.317Z,6.67
2019-01-10T23:22:36.851Z,6.00
2019-01-10T23:28:40.976Z,8.00
2019-01-10T23:31:40.180Z,8.00
2019-01-10T23:34:50.555Z,8.00
2019-01-10T23:40:49.860Z,8.00
2019-01-10T23:43:51.919Z,8.00
2019-01-10T23:49:25.920Z,10.00
2019-01-10T23:51:56.251Z,9.33
2019-01-10T23:54:26.552Z,6.00
2019-01-10T23:57:15.743Z,12.00
